sensor_id;sensor_type;location;lat;lon;timestamp;pressure;altitude;pressure_sealevel;temperature;humidity
86143;BME280;76799;50.146;22.704;2024-03-06T00:02:04;99586.00;;;7.63;91.73
86143;BME280;76799;50.146;22.704;2024-03-06T00:04:30;99585.81;;;7.65;92.12
86143;BME280;76799;50.146;22.704;2024-03-06T00:06:55;99583.19;;;7.65;91.90
86143;BME280;76799;50.146;22.704;2024-03-06T00:09:21;99585.66;;;7.66;91.82
86143;BME280;76799;50.146;22.704;2024-03-06T00:11:46;99586.50;;;7.67;91.61
86143;BME280;76799;50.146;22.704;2024-03-06T00:14:12;99586.50;;;7.67;91.92
86143;BME280;76799;50.146;22.704;2024-03-06T00:16:38;99588.00;;;7.69;91.22
86143;BME280;76799;50.146;22.704;2024-03-06T00:19:03;99587.03;;;7.70;91.68
86143;BME280;76799;50.146;22.704;2024-03-06T00:21:29;99589.66;;;7.70;91.55
86143;BME280;76799;50.146;22.704;2024-03-06T00:23:55;99597.06;;;7.67;91.76
86143;BME280;76799;50.146;22.704;2024-03-06T00:26:21;99593.28;;;7.69;92.06
86143;BME280;76799;50.146;22.704;2024-03-06T00:28:46;99595.91;;;7.69;91.42
86143;BME280;76799;50.146;22.704;2024-03-06T00:31:12;99598.03;;;7.66;92.18
86143;BME280;76799;50.146;22.704;2024-03-06T00:33:37;99600.38;;;7.69;91.25
86143;BME280;76799;50.146;22.704;2024-03-06T00:36:03;99595.63;;;7.72;91.18
86143;BME280;76799;50.146;22.704;2024-03-06T00:38:29;99595.63;;;7.72;91.12
86143;BME280;76799;50.146;22.704;2024-03-06T00:40:55;99597.28;;;7.73;91.61
86143;BME280;76799;50.146;22.704;2024-03-06T00:43:22;99593.84;;;7.73;91.41
86143;BME280;76799;50.146;22.704;2024-03-06T00:45:47;99598.25;;;7.72;91.10
86143;BME280;76799;50.146;22.704;2024-03-06T00:48:13;99594.13;;;7.70;91.66
86143;BME280;76799;50.146;22.704;2024-03-06T00:50:38;99594.25;;;7.68;91.80
86143;BME280;76799;50.146;22.704;2024-03-06T00:53:04;99595.09;;;7.69;91.83
86143;BME280;76799;50.146;22.704;2024-03-06T00:55:29;99586.63;;;7.65;91.63
86143;BME280;76799;50.146;22.704;2024-03-06T00:57:55;99590.13;;;7.66;91.67
86143;BME280;76799;50.146;22.704;2024-03-06T01:00:21;99592.06;;;7.64;91.79
86143;BME280;76799;50.146;22.704;2024-03-06T01:02:47;99594.53;;;7.65;91.90
86143;BME280;76799;50.146;22.704;2024-03-06T01:05:13;99597.19;;;7.65;91.63
86143;BME280;76799;50.146;22.704;2024-03-06T01:07:38;99598.31;;;7.63;91.92
86143;BME280;76799;50.146;22.704;2024-03-06T01:10:05;99600.13;;;7.63;91.88
86143;BME280;76799;50.146;22.704;2024-03-06T01:12:32;99594.88;;;7.63;91.70
86143;BME280;76799;50.146;22.704;2024-03-06T01:14:57;99604.56;;;7.62;91.94
86143;BME280;76799;50.146;22.704;2024-03-06T01:17:23;99601.13;;;7.62;91.50
86143;BME280;76799;50.146;22.704;2024-03-06T01:19:49;99596.81;;;7.61;91.53
86143;BME280;76799;50.146;22.704;2024-03-06T01:22:14;99602.22;;;7.59;92.08
86143;BME280;76799;50.146;22.704;2024-03-06T01:24:39;99599.75;;;7.58;91.52
86143;BME280;76799;50.146;22.704;2024-03-06T01:27:05;99598.78;;;7.59;92.05
86143;BME280;76799;50.146;22.704;2024-03-06T01:29:31;99602.22;;;7.59;92.10
86143;BME280;76799;50.146;22.704;2024-03-06T01:31:57;99596.56;;;7.54;91.76
86143;BME280;76799;50.146;22.704;2024-03-06T01:34:23;99599.19;;;7.54;91.95
86143;BME280;76799;50.146;22.704;2024-03-06T01:36:48;99601.00;;;7.54;91.83
86143;BME280;76799;50.146;22.704;2024-03-06T01:39:14;99597.81;;;7.50;91.96
86143;BME280;76799;50.146;22.704;2024-03-06T01:41:46;99595.34;;;7.49;92.09
86143;BME280;76799;50.146;22.704;2024-03-06T01:44:12;99586.75;;;7.47;92.25
86143;BME280;76799;50.146;22.704;2024-03-06T01:46:38;99597.13;;;7.48;92.25
86143;BME280;76799;50.146;22.704;2024-03-06T01:49:03;99591.19;;;7.46;92.24
86143;BME280;76799;50.146;22.704;2024-03-06T01:51:29;99602.84;;;7.44;92.30
86143;BME280;76799;50.146;22.704;2024-03-06T01:53:55;99608.25;;;7.42;92.33
86143;BME280;76799;50.146;22.704;2024-03-06T01:56:21;99609.22;;;7.41;92.12
86143;BME280;76799;50.146;22.704;2024-03-06T01:58:47;99605.78;;;7.41;92.14
86143;BME280;76799;50.146;22.704;2024-03-06T02:01:13;99608.53;;;7.39;92.30
86143;BME280;76799;50.146;22.704;2024-03-06T02:03:39;99609.50;;;7.38;92.46
86143;BME280;76799;50.146;22.704;2024-03-06T02:06:05;99603.56;;;7.36;92.54
86143;BME280;76799;50.146;22.704;2024-03-06T02:08:31;99601.88;;;7.35;92.72
86143;BME280;76799;50.146;22.704;2024-03-06T02:10:58;99601.06;;;7.35;92.51
86143;BME280;76799;50.146;22.704;2024-03-06T02:13:25;99601.38;;;7.32;92.56
86143;BME280;76799;50.146;22.704;2024-03-06T02:15:51;99601.38;;;7.32;92.58
86143;BME280;76799;50.146;22.704;2024-03-06T02:18:16;99604.28;;;7.29;92.61
86143;BME280;76799;50.146;22.704;2024-03-06T02:20:41;99604.97;;;7.31;92.85
86143;BME280;76799;50.146;22.704;2024-03-06T02:23:07;99608.41;;;7.31;92.70
86143;BME280;76799;50.146;22.704;2024-03-06T02:25:33;99604.28;;;7.29;92.96
86143;BME280;76799;50.146;22.704;2024-03-06T02:27:58;99602.34;;;7.31;92.38
86143;BME280;76799;50.146;22.704;2024-03-06T02:30:24;99605.66;;;7.33;92.28
86143;BME280;76799;50.146;22.704;2024-03-06T02:32:49;99609.13;;;7.33;92.53
86143;BME280;76799;50.146;22.704;2024-03-06T02:35:15;99610.25;;;7.31;92.48
86143;BME280;76799;50.146;22.704;2024-03-06T02:37:43;99614.53;;;7.32;92.42
86143;BME280;76799;50.146;22.704;2024-03-06T02:40:12;99610.94;;;7.33;92.22
86143;BME280;76799;50.146;22.704;2024-03-06T02:42:37;99604.81;;;7.32;92.49
86143;BME280;76799;50.146;22.704;2024-03-06T02:45:06;99613.56;;;7.33;92.26
86143;BME280;76799;50.146;22.704;2024-03-06T02:47:35;99611.06;;;7.31;92.39
86143;BME280;76799;50.146;22.704;2024-03-06T02:50:00;99609.13;;;7.33;92.15
86143;BME280;76799;50.146;22.704;2024-03-06T02:52:26;99603.03;;;7.33;92.16
86143;BME280;76799;50.146;22.704;2024-03-06T02:54:51;99612.72;;;7.32;92.02
86143;BME280;76799;50.146;22.704;2024-03-06T02:57:16;99605.78;;;7.31;92.35
86143;BME280;76799;50.146;22.704;2024-03-06T02:59:42;99603.31;;;7.30;92.17
86143;BME280;76799;50.146;22.704;2024-03-06T03:02:08;99606.63;;;7.32;92.24
86143;BME280;76799;50.146;22.704;2024-03-06T03:04:33;99610.09;;;7.32;92.46
86143;BME280;76799;50.146;22.704;2024-03-06T03:06:58;99612.72;;;7.32;92.44
86143;BME280;76799;50.146;22.704;2024-03-06T03:09:24;99606.63;;;7.32;92.27
86143;BME280;76799;50.146;22.704;2024-03-06T03:11:49;99613.84;;;7.30;92.50
86143;BME280;76799;50.146;22.704;2024-03-06T03:14:15;99616.47;;;7.30;92.45
86143;BME280;76799;50.146;22.704;2024-03-06T03:16:40;99613.84;;;7.30;92.35
86143;BME280;76799;50.146;22.704;2024-03-06T03:19:07;99611.91;;;7.32;92.43
86143;BME280;76799;50.146;22.704;2024-03-06T03:21:33;99606.91;;;7.29;92.36
86143;BME280;76799;50.146;22.704;2024-03-06T03:23:59;99612.19;;;7.29;92.63
86143;BME280;76799;50.146;22.704;2024-03-06T03:26:24;99612.47;;;7.26;92.55
86143;BME280;76799;50.146;22.704;2024-03-06T03:28:50;99614.13;;;7.27;92.58
86143;BME280;76799;50.146;22.704;2024-03-06T03:31:15;99609.00;;;7.25;92.50
86143;BME280;76799;50.146;22.704;2024-03-06T03:33:41;99609.97;;;7.24;92.73
86143;BME280;76799;50.146;22.704;2024-03-06T03:36:07;99606.66;;;7.22;92.60
86143;BME280;76799;50.146;22.704;2024-03-06T03:38:33;99615.09;;;7.26;92.69
86143;BME280;76799;50.146;22.704;2024-03-06T03:41:01;99615.09;;;7.26;92.75
86143;BME280;76799;50.146;22.704;2024-03-06T03:43:29;99616.91;;;7.25;92.37
86143;BME280;76799;50.146;22.704;2024-03-06T03:45:54;99615.09;;;7.26;92.66
86143;BME280;76799;50.146;22.704;2024-03-06T03:48:20;99610.81;;;7.25;92.72
86143;BME280;76799;50.146;22.704;2024-03-06T03:50:45;99616.09;;;7.25;92.42
86143;BME280;76799;50.146;22.704;2024-03-06T03:53:11;99612.75;;;7.23;92.26
86143;BME280;76799;50.146;22.704;2024-03-06T03:55:36;99617.06;;;7.24;92.25
86143;BME280;76799;50.146;22.704;2024-03-06T03:58:01;99616.38;;;7.22;92.64
86143;BME280;76799;50.146;22.704;2024-03-06T04:00:27;99614.72;;;7.21;92.27
86143;BME280;76799;50.146;22.704;2024-03-06T04:02:52;99609.44;;;7.21;92.71
86143;BME280;76799;50.146;22.704;2024-03-06T04:05:18;99614.03;;;7.19;92.36
86143;BME280;76799;50.146;22.704;2024-03-06T04:07:43;99617.63;;;7.18;92.58
86143;BME280;76799;50.146;22.704;2024-03-06T04:10:10;99627.31;;;7.17;92.61
86143;BME280;76799;50.146;22.704;2024-03-06T04:12:36;99618.59;;;7.17;92.50
86143;BME280;76799;50.146;22.704;2024-03-06T04:15:02;99621.22;;;7.17;92.57
86143;BME280;76799;50.146;22.704;2024-03-06T04:17:29;99625.53;;;7.18;92.69
86143;BME280;76799;50.146;22.704;2024-03-06T04:19:54;99623.88;;;7.17;92.75
86143;BME280;76799;50.146;22.704;2024-03-06T04:22:20;99624.56;;;7.19;92.63
86143;BME280;76799;50.146;22.704;2024-03-06T04:24:46;99627.19;;;7.19;92.48
86143;BME280;76799;50.146;22.704;2024-03-06T04:27:11;99631.47;;;7.20;92.52
86143;BME280;76799;50.146;22.704;2024-03-06T04:29:37;99628.00;;;7.19;92.30
86143;BME280;76799;50.146;22.704;2024-03-06T04:32:02;99624.41;;;7.20;92.33
86143;BME280;76799;50.146;22.704;2024-03-06T04:34:27;99623.59;;;7.20;92.50
86143;BME280;76799;50.146;22.704;2024-03-06T04:36:53;99628.00;;;7.19;92.43
86143;BME280;76799;50.146;22.704;2024-03-06T04:39:18;99623.59;;;7.20;92.28
86143;BME280;76799;50.146;22.704;2024-03-06T04:41:44;99625.25;;;7.21;92.43
86143;BME280;76799;50.146;22.704;2024-03-06T04:44:09;99631.19;;;7.23;92.15
86143;BME280;76799;50.146;22.704;2024-03-06T04:46:34;99626.75;;;7.23;92.25
86143;BME280;76799;50.146;22.704;2024-03-06T04:49:00;99633.84;;;7.23;92.35
86143;BME280;76799;50.146;22.704;2024-03-06T04:51:25;99635.50;;;7.24;92.24
86143;BME280;76799;50.146;22.704;2024-03-06T04:53:50;99630.22;;;7.24;92.26
86143;BME280;76799;50.146;22.704;2024-03-06T04:56:16;99630.22;;;7.24;91.85
86143;BME280;76799;50.146;22.704;2024-03-06T04:58:44;99626.63;;;7.25;92.00
86143;BME280;76799;50.146;22.704;2024-03-06T05:01:09;99631.03;;;7.24;92.21
86143;BME280;76799;50.146;22.704;2024-03-06T05:03:35;99631.03;;;7.24;92.44
86143;BME280;76799;50.146;22.704;2024-03-06T05:06:01;99624.97;;;7.24;91.97
86143;BME280;76799;50.146;22.704;2024-03-06T05:08:26;99635.63;;;7.22;92.43
86143;BME280;76799;50.146;22.704;2024-03-06T05:10:52;99641.59;;;7.24;92.14
86143;BME280;76799;50.146;22.704;2024-03-06T05:13:17;99638.81;;;7.26;91.52
86143;BME280;76799;50.146;22.704;2024-03-06T05:15:42;99643.13;;;7.27;91.81
86143;BME280;76799;50.146;22.704;2024-03-06T05:18:08;99645.75;;;7.27;92.13
86143;BME280;76799;50.146;22.704;2024-03-06T05:20:34;99639.63;;;7.26;91.76
86143;BME280;76799;50.146;22.704;2024-03-06T05:22:59;99642.16;;;7.28;91.63
86143;BME280;76799;50.146;22.704;2024-03-06T05:25:25;99646.44;;;7.29;91.50
86143;BME280;76799;50.146;22.704;2024-03-06T05:27:50;99642.97;;;7.28;92.20
86143;BME280;76799;50.146;22.704;2024-03-06T05:30:16;99638.53;;;7.29;91.87
86143;BME280;76799;50.146;22.704;2024-03-06T05:32:41;99646.28;;;7.30;91.86
86143;BME280;76799;50.146;22.704;2024-03-06T05:35:07;99647.13;;;7.31;91.68
86143;BME280;76799;50.146;22.704;2024-03-06T05:37:35;99648.78;;;7.32;91.58
86143;BME280;76799;50.146;22.704;2024-03-06T05:40:01;99654.06;;;7.32;91.70
86143;BME280;76799;50.146;22.704;2024-03-06T05:42:26;99660.84;;;7.34;91.20
86143;BME280;76799;50.146;22.704;2024-03-06T05:44:51;99662.50;;;7.35;91.35
86143;BME280;76799;50.146;22.704;2024-03-06T05:47:19;99667.63;;;7.37;91.39
86143;BME280;76799;50.146;22.704;2024-03-06T05:49:45;99664.16;;;7.36;91.42
86143;BME280;76799;50.146;22.704;2024-03-06T05:52:10;99669.31;;;7.38;91.30
86143;BME280;76799;50.146;22.704;2024-03-06T05:54:36;99670.97;;;7.39;91.21
86143;BME280;76799;50.146;22.704;2024-03-06T05:57:02;99673.59;;;7.39;91.40
86143;BME280;76799;50.146;22.704;2024-03-06T05:59:28;99677.06;;;7.39;91.86
86143;BME280;76799;50.146;22.704;2024-03-06T06:01:54;99674.28;;;7.41;91.20
86143;BME280;76799;50.146;22.704;2024-03-06T06:04:20;99680.53;;;7.40;92.14
86143;BME280;76799;50.146;22.704;2024-03-06T06:06:45;99683.16;;;7.40;91.38
86143;BME280;76799;50.146;22.704;2024-03-06T06:09:10;99679.56;;;7.41;92.18
86143;BME280;76799;50.146;22.704;2024-03-06T06:11:42;99683.84;;;7.42;91.70
86143;BME280;76799;50.146;22.704;2024-03-06T06:14:08;99685.53;;;7.43;91.20
86143;BME280;76799;50.146;22.704;2024-03-06T06:16:37;99688.16;;;7.43;91.54
86143;BME280;76799;50.146;22.704;2024-03-06T06:19:03;99694.00;;;7.37;92.88
86143;BME280;76799;50.146;22.704;2024-03-06T06:21:30;99691.06;;;7.40;92.10
86143;BME280;76799;50.146;22.704;2024-03-06T06:23:55;99690.78;;;7.33;92.45
86143;BME280;76799;50.146;22.704;2024-03-06T06:26:21;99693.31;;;7.35;92.11
86143;BME280;76799;50.146;22.704;2024-03-06T06:28:46;99695.66;;;7.38;91.35
86143;BME280;76799;50.146;22.704;2024-03-06T06:31:12;99696.34;;;7.40;91.21
86143;BME280;76799;50.146;22.704;2024-03-06T06:33:37;99697.03;;;7.42;91.63
86143;BME280;76799;50.146;22.704;2024-03-06T06:36:03;99703.97;;;7.43;91.75
86143;BME280;76799;50.146;22.704;2024-03-06T06:38:28;99700.22;;;7.36;92.02
86143;BME280;76799;50.146;22.704;2024-03-06T06:40:54;99704.25;;;7.40;91.64
86143;BME280;76799;50.146;22.704;2024-03-06T06:43:20;99712.28;;;7.38;91.49
86143;BME280;76799;50.146;22.704;2024-03-06T06:45:46;99713.25;;;7.37;91.63
86143;BME280;76799;50.146;22.704;2024-03-06T06:48:11;99708.69;;;7.39;91.27
86143;BME280;76799;50.146;22.704;2024-03-06T06:50:37;99718.94;;;7.42;91.44
86143;BME280;76799;50.146;22.704;2024-03-06T06:53:02;99718.41;;;7.39;91.77
86143;BME280;76799;50.146;22.704;2024-03-06T06:55:27;99723.38;;;7.42;91.52
86143;BME280;76799;50.146;22.704;2024-03-06T06:57:53;99721.44;;;7.44;91.16
86143;BME280;76799;50.146;22.704;2024-03-06T07:00:19;99723.66;;;7.39;91.36
86143;BME280;76799;50.146;22.704;2024-03-06T07:02:47;99727.28;;;7.38;92.10
86143;BME280;76799;50.146;22.704;2024-03-06T07:05:12;99722.00;;;7.38;92.10
86143;BME280;76799;50.146;22.704;2024-03-06T07:07:38;99732.13;;;7.33;92.32
86143;BME280;76799;50.146;22.704;2024-03-06T07:10:04;99726.59;;;7.36;91.87
86143;BME280;76799;50.146;22.704;2024-03-06T07:12:31;99732.13;;;7.33;92.66
86143;BME280;76799;50.146;22.704;2024-03-06T07:14:57;99729.22;;;7.36;92.22
86143;BME280;76799;50.146;22.704;2024-03-06T07:17:22;99740.28;;;7.39;91.99
86143;BME280;76799;50.146;22.704;2024-03-06T07:19:48;99734.91;;;7.41;91.81
86143;BME280;76799;50.146;22.704;2024-03-06T07:22:13;99741.41;;;7.37;92.18
86143;BME280;76799;50.146;22.704;2024-03-06T07:24:39;99742.13;;;7.39;92.09
86143;BME280;76799;50.146;22.704;2024-03-06T07:27:05;99734.22;;;7.39;92.44
86143;BME280;76799;50.146;22.704;2024-03-06T07:29:30;99743.63;;;7.41;91.72
86143;BME280;76799;50.146;22.704;2024-03-06T07:31:55;99739.31;;;7.40;91.86
86143;BME280;76799;50.146;22.704;2024-03-06T07:34:21;99740.28;;;7.39;92.09
86143;BME280;76799;50.146;22.704;2024-03-06T07:36:49;99747.22;;;7.40;91.26
86143;BME280;76799;50.146;22.704;2024-03-06T07:39:19;99745.56;;;7.39;91.51
86143;BME280;76799;50.146;22.704;2024-03-06T07:41:44;99748.91;;;7.41;91.44
86143;BME280;76799;50.146;22.704;2024-03-06T07:44:10;99755.53;;;7.45;91.16
86143;BME280;76799;50.146;22.704;2024-03-06T07:46:35;99752.09;;;7.45;91.12
86143;BME280;76799;50.146;22.704;2024-03-06T07:49:01;99755.53;;;7.45;90.80
86143;BME280;76799;50.146;22.704;2024-03-06T07:51:31;99760.81;;;7.45;90.75
86143;BME280;76799;50.146;22.704;2024-03-06T07:53:57;99770.53;;;7.45;90.97
86143;BME280;76799;50.146;22.704;2024-03-06T07:56:26;99766.09;;;7.45;90.72
86143;BME280;76799;50.146;22.704;2024-03-06T07:58:52;99766.25;;;7.44;91.49
86143;BME280;76799;50.146;22.704;2024-03-06T08:01:18;99771.63;;;7.42;92.05
86143;BME280;76799;50.146;22.704;2024-03-06T08:03:44;99773.16;;;7.35;92.03
86143;BME280;76799;50.146;22.704;2024-03-06T08:06:10;99778.03;;;7.30;92.02
86143;BME280;76799;50.146;22.704;2024-03-06T08:08:36;99781.91;;;7.26;91.53
86143;BME280;76799;50.146;22.704;2024-03-06T08:11:02;99784.97;;;7.22;90.24
86143;BME280;76799;50.146;22.704;2024-03-06T08:13:28;99784.28;;;7.20;90.65
86143;BME280;76799;50.146;22.704;2024-03-06T08:15:54;99785.78;;;7.13;91.04
86143;BME280;76799;50.146;22.704;2024-03-06T08:18:20;99789.13;;;7.15;90.67
86143;BME280;76799;50.146;22.704;2024-03-06T08:20:45;99790.50;;;7.19;90.88
86143;BME280;76799;50.146;22.704;2024-03-06T08:23:10;99790.78;;;7.16;91.18
86143;BME280;76799;50.146;22.704;2024-03-06T08:25:36;99788.28;;;7.14;91.19
86143;BME280;76799;50.146;22.704;2024-03-06T08:28:01;99796.88;;;7.16;91.26
86143;BME280;76799;50.146;22.704;2024-03-06T08:30:28;99793.81;;;7.11;91.13
86143;BME280;76799;50.146;22.704;2024-03-06T08:32:55;99787.31;;;7.06;90.58
86143;BME280;76799;50.146;22.704;2024-03-06T08:35:21;99790.09;;;7.14;90.54
86143;BME280;76799;50.146;22.704;2024-03-06T08:37:49;99797.44;;;7.20;90.79
86143;BME280;76799;50.146;22.704;2024-03-06T08:40:16;99789.94;;;7.15;90.60
86143;BME280;76799;50.146;22.704;2024-03-06T08:42:49;99793.53;;;7.14;90.78
86143;BME280;76799;50.146;22.704;2024-03-06T08:45:15;99794.66;;;7.21;90.66
86143;BME280;76799;50.146;22.704;2024-03-06T08:47:41;99789.97;;;7.25;90.47
86143;BME280;76799;50.146;22.704;2024-03-06T08:50:07;99793.56;;;7.24;90.53
86143;BME280;76799;50.146;22.704;2024-03-06T08:52:33;99788.72;;;7.29;90.14
86143;BME280;76799;50.146;22.704;2024-03-06T08:55:00;99791.06;;;7.32;89.59
86143;BME280;76799;50.146;22.704;2024-03-06T08:57:25;99793.28;;;7.27;89.60
86143;BME280;76799;50.146;22.704;2024-03-06T08:59:56;99790.78;;;7.35;89.18
86143;BME280;76799;50.146;22.704;2024-03-06T09:02:21;99795.78;;;7.38;89.43
86143;BME280;76799;50.146;22.704;2024-03-06T09:04:46;99799.13;;;7.40;89.28
86143;BME280;76799;50.146;22.704;2024-03-06T09:07:13;99792.19;;;7.39;89.80
86143;BME280;76799;50.146;22.704;2024-03-06T09:09:39;99800.78;;;7.41;90.19
86143;BME280;76799;50.146;22.704;2024-03-06T09:12:06;99791.88;;;7.51;89.60
86143;BME280;76799;50.146;22.704;2024-03-06T09:14:33;99798.41;;;7.57;89.15
86143;BME280;76799;50.146;22.704;2024-03-06T09:16:59;99797.44;;;7.58;88.91
86143;BME280;76799;50.146;22.704;2024-03-06T09:19:25;99796.56;;;7.66;88.17
86143;BME280;76799;50.146;22.704;2024-03-06T09:21:51;99794.34;;;7.71;88.84
86143;BME280;76799;50.146;22.704;2024-03-06T09:24:16;99800.88;;;7.77;88.82
86143;BME280;76799;50.146;22.704;2024-03-06T09:26:42;99803.63;;;7.85;88.95
86143;BME280;76799;50.146;22.704;2024-03-06T09:29:08;99808.75;;;7.86;88.59
86143;BME280;76799;50.146;22.704;2024-03-06T09:31:34;99809.84;;;7.93;87.36
86143;BME280;76799;50.146;22.704;2024-03-06T09:33:59;99810.81;;;8.02;87.03
86143;BME280;76799;50.146;22.704;2024-03-06T09:36:24;99801.25;;;8.01;87.37
86143;BME280;76799;50.146;22.704;2024-03-06T09:38:51;99809.97;;;8.11;86.96
86143;BME280;76799;50.146;22.704;2024-03-06T09:41:17;99805.66;;;8.19;86.37
86143;BME280;76799;50.146;22.704;2024-03-06T09:43:44;99805.75;;;8.27;86.36
86143;BME280;76799;50.146;22.704;2024-03-06T09:46:09;99806.47;;;8.29;86.04
86143;BME280;76799;50.146;22.704;2024-03-06T09:48:35;99809.50;;;8.34;85.26
86143;BME280;76799;50.146;22.704;2024-03-06T09:51:02;99811.91;;;8.28;85.48
86143;BME280;76799;50.146;22.704;2024-03-06T09:53:28;99812.31;;;8.23;85.12
86143;BME280;76799;50.146;22.704;2024-03-06T09:55:55;99807.59;;;8.27;84.66
86143;BME280;76799;50.146;22.704;2024-03-06T09:58:21;99807.59;;;8.27;84.88
86143;BME280;76799;50.146;22.704;2024-03-06T10:00:48;99809.94;;;8.30;86.10
86143;BME280;76799;50.146;22.704;2024-03-06T10:03:15;99817.28;;;8.36;85.37
86143;BME280;76799;50.146;22.704;2024-03-06T10:05:40;99816.03;;;8.40;85.82
86143;BME280;76799;50.146;22.704;2024-03-06T10:08:08;99815.97;;;8.49;86.22
86143;BME280;76799;50.146;22.704;2024-03-06T10:10:35;99819.00;;;8.54;85.54
86143;BME280;76799;50.146;22.704;2024-03-06T10:13:02;99814.13;;;8.59;84.60
86143;BME280;76799;50.146;22.704;2024-03-06T10:15:27;99821.13;;;8.51;85.70
86143;BME280;76799;50.146;22.704;2024-03-06T10:18:15;99823.06;;;8.49;85.44
86143;BME280;76799;50.146;22.704;2024-03-06T10:20:46;99826.41;;;8.41;85.24
86143;BME280;76799;50.146;22.704;2024-03-06T10:23:12;99817.56;;;8.33;86.20
86143;BME280;76799;50.146;22.704;2024-03-06T10:25:37;99813.69;;;8.27;86.64
86143;BME280;76799;50.146;22.704;2024-03-06T10:30:28;99810.34;;;8.25;86.79
86143;BME280;76799;50.146;22.704;2024-03-06T10:32:53;99807.31;;;8.20;88.07
86143;BME280;76799;50.146;22.704;2024-03-06T10:35:20;99816.09;;;8.21;87.73
86143;BME280;76799;50.146;22.704;2024-03-06T10:37:46;99806.06;;;8.15;87.97
86143;BME280;76799;50.146;22.704;2024-03-06T10:40:14;99809.28;;;8.18;88.42
86143;BME280;76799;50.146;22.704;2024-03-06T10:42:42;99810.66;;;8.22;88.35
86143;BME280;76799;50.146;22.704;2024-03-06T10:45:13;99813.16;;;8.24;88.44
86143;BME280;76799;50.146;22.704;2024-03-06T10:47:39;99808.97;;;8.31;87.97
86143;BME280;76799;50.146;22.704;2024-03-06T10:50:06;99805.59;;;8.38;87.98
86143;BME280;76799;50.146;22.704;2024-03-06T10:52:36;99806.56;;;8.37;87.53
86143;BME280;76799;50.146;22.704;2024-03-06T10:55:03;99808.91;;;8.40;88.68
86143;BME280;76799;50.146;22.704;2024-03-06T10:57:30;99806.09;;;8.51;88.68
86143;BME280;76799;50.146;22.704;2024-03-06T10:59:56;99806.09;;;8.51;88.26
86143;BME280;76799;50.146;22.704;2024-03-06T11:02:24;99801.09;;;8.48;87.98
86143;BME280;76799;50.146;22.704;2024-03-06T11:04:51;99803.75;;;8.48;88.45
86143;BME280;76799;50.146;22.704;2024-03-06T11:07:16;99803.59;;;8.50;88.57
86143;BME280;76799;50.146;22.704;2024-03-06T11:09:42;99803.84;;;8.56;87.68
86143;BME280;76799;50.146;22.704;2024-03-06T11:12:07;99793.25;;;8.66;88.21
86143;BME280;76799;50.146;22.704;2024-03-06T11:14:36;99797.97;;;8.62;86.92
86143;BME280;76799;50.146;22.704;2024-03-06T11:17:08;99798.44;;;8.58;87.06
86143;BME280;76799;50.146;22.704;2024-03-06T11:28:11;99794.66;;;8.60;87.92
86143;BME280;76799;50.146;22.704;2024-03-06T11:30:48;99792.84;;;8.61;87.06
86143;BME280;76799;50.146;22.704;2024-03-06T11:33:20;99789.66;;;8.57;86.96
86143;BME280;76799;50.146;22.704;2024-03-06T11:38:59;99787.13;;;8.65;87.67
86143;BME280;76799;50.146;22.704;2024-03-06T11:41:29;99788.66;;;8.68;87.70
86143;BME280;76799;50.146;22.704;2024-03-06T11:43:56;99784.47;;;8.65;88.02
86143;BME280;76799;50.146;22.704;2024-03-06T11:49:24;99781.31;;;8.62;86.50
86143;BME280;76799;50.146;22.704;2024-03-06T11:51:53;99796.41;;;8.42;86.53
86143;BME280;76799;50.146;22.704;2024-03-06T11:54:19;99791.19;;;8.33;87.38
86143;BME280;76799;50.146;22.704;2024-03-06T11:56:56;99790.78;;;8.18;87.62
86143;BME280;76799;50.146;22.704;2024-03-06T12:01:50;99791.25;;;7.95;87.94
86143;BME280;76799;50.146;22.704;2024-03-06T12:04:15;99791.28;;;7.85;88.16
86143;BME280;76799;50.146;22.704;2024-03-06T12:06:41;99796.25;;;7.88;89.06
86143;BME280;76799;50.146;22.704;2024-03-06T12:09:06;99798.38;;;7.75;88.11
86143;BME280;76799;50.146;22.704;2024-03-06T12:11:36;99801.75;;;7.59;88.22
86143;BME280;76799;50.146;22.704;2024-03-06T12:14:01;99803.84;;;7.46;88.89
86143;BME280;76799;50.146;22.704;2024-03-06T12:16:27;99801.06;;;7.38;88.60
86143;BME280;76799;50.146;22.704;2024-03-06T12:18:56;99807.97;;;7.29;88.98
86143;BME280;76799;50.146;22.704;2024-03-06T12:21:27;99808.25;;;7.17;89.54
86143;BME280;76799;50.146;22.704;2024-03-06T12:24:02;99808.66;;;7.12;89.57
86143;BME280;76799;50.146;22.704;2024-03-06T12:26:28;99809.34;;;7.05;89.05
86143;BME280;76799;50.146;22.704;2024-03-06T12:28:53;99811.56;;;7.00;89.24
86143;BME280;76799;50.146;22.704;2024-03-06T12:31:28;99813.34;;;6.90;89.83
86143;BME280;76799;50.146;22.704;2024-03-06T12:33:57;99812.09;;;6.94;88.87
86143;BME280;76799;50.146;22.704;2024-03-06T12:36:25;99811.25;;;6.84;89.83
86143;BME280;76799;50.146;22.704;2024-03-06T12:38:54;99810.66;;;6.80;89.96
86143;BME280;76799;50.146;22.704;2024-03-06T12:41:20;99818.03;;;6.77;89.32
86143;BME280;76799;50.146;22.704;2024-03-06T12:43:45;99820.94;;;6.74;89.33
86143;BME280;76799;50.146;22.704;2024-03-06T12:46:12;99824.22;;;6.66;89.80
86143;BME280;76799;50.146;22.704;2024-03-06T12:48:37;99827.44;;;6.70;89.83
86143;BME280;76799;50.146;22.704;2024-03-06T12:51:02;99816.19;;;6.68;89.29
86143;BME280;76799;50.146;22.704;2024-03-06T12:53:30;99826.72;;;6.68;89.82
86143;BME280;76799;50.146;22.704;2024-03-06T12:55:56;99823.94;;;6.60;89.32
86143;BME280;76799;50.146;22.704;2024-03-06T12:58:21;99821.41;;;6.58;89.26
86143;BME280;76799;50.146;22.704;2024-03-06T13:00:47;99837.22;;;6.58;89.57
86143;BME280;76799;50.146;22.704;2024-03-06T13:03:12;99831.66;;;6.52;88.90
86143;BME280;76799;50.146;22.704;2024-03-06T13:05:37;99833.84;;;6.47;88.25
86143;BME280;76799;50.146;22.704;2024-03-06T13:08:03;99826.06;;;6.45;88.52
86143;BME280;76799;50.146;22.704;2024-03-06T13:10:28;99829.13;;;6.41;88.48
86143;BME280;76799;50.146;22.704;2024-03-06T13:12:54;99828.78;;;6.34;88.54
86143;BME280;76799;50.146;22.704;2024-03-06T13:15:19;99838.94;;;6.39;88.44